Time;durP1;ratioP1;P1;durP2;ratioP2;P2;SDS_P1;SDS_P2;PMS_P1;PMS_P2;Temp;Humidity;BMP_temperature;BMP_pressure;BME280_temperature;BME280_humidity;BME280_pressure;Samples;Min_cycle;Max_cycle;Signal;HPM_P1;HPM_P2
2021/04/12 00:05:41;;;;;;;10.1;6.6;;;;;;;7.69;97.03223;98577.95;;;;
2021/04/12 00:15:38;;;;;;;8.9;6;;;;;;;7.36;98.7041;98570.84;;;;
2021/04/12 00:25:36;;;;;;;11.6;6.7;;;;;;;7.06;100;98570.13;;;;
2021/04/12 00:35:35;;;;;;;12.6;8.2;;;;;;;6.71;100;98558.97;;;;
2021/04/12 00:45:44;;;;;;;11.1;6.7;;;;;;;6.44;100;98554.14;;;;
2021/04/12 00:55:38;;;;;;;10;7.1;;;;;;;6.23;100;98550.03;;;;
2021/04/12 01:05:43;;;;;;;10.1;5.8;;;;;;;6.17;100;98549.28;;;;
2021/04/12 01:15:45;;;;;;;11.9;6.7;;;;;;;6.17;100;98540.45;;;;
2021/04/12 01:25:25;;;;;;;7.9;5.7;;;;;;;6.12;100;98540.47;;;;
2021/04/12 01:35:23;;;;;;;7.9;5.8;;;;;;;6.01;100;98534.39;;;;
2021/04/12 01:45:21;;;;;;;7.3;5.1;;;;;;;5.91;100;98534.47;;;;
2021/04/12 01:55:19;;;;;;;7.5;4.9;;;;;;;5.83;100;98525.13;;;;
2021/04/12 02:05:17;;;;;;;8.9;6.4;;;;;;;5.83;100;98527.8;;;;
2021/04/12 02:15:15;;;;;;;13.6;7;;;;;;;5.64;100;98532.22;;;;
2021/04/12 02:25:13;;;;;;;10.3;6.6;;;;;;;5.44;100;98535.81;;;;
2021/04/12 02:35:11;;;;;;;10.2;6;;;;;;;5.55;100;98523.97;;;;
2021/04/12 02:45:09;;;;;;;10.4;6.3;;;;;;;5.64;100;98510.83;;;;
2021/04/12 02:55:07;;;;;;;8.7;5.8;;;;;;;5.56;100;98511.41;;;;
2021/04/12 03:05:05;;;;;;;6.4;4.7;;;;;;;5.79;100;98509.94;;;;
2021/04/12 03:15:03;;;;;;;8.5;5.3;;;;;;;6.17;100;98513.69;;;;
2021/04/12 03:25:01;;;;;;;9.3;6.8;;;;;;;5.76;100;98510.5;;;;
2021/04/12 03:35:00;;;;;;;10.1;4.9;;;;;;;5.44;100;98511.75;;;;
2021/04/12 03:44:58;;;;;;;13.1;6.9;;;;;;;5.29;100;98500.33;;;;
2021/04/12 03:54:56;;;;;;;7.7;5.6;;;;;;;4.93;100;98503.16;;;;
2021/04/12 04:04:54;;;;;;;8.6;7;;;;;;;4.83;100;98510.39;;;;
2021/04/12 04:14:52;;;;;;;14.5;5.5;;;;;;;4.73;100;98513.9;;;;
2021/04/12 04:25:20;;;;;;;11.6;7;;;;;;;4.73;100;98500.55;;;;
2021/04/12 04:34:47;;;;;;;7.6;5;;;;;;;4.91;100;98505.3;;;;
2021/04/12 04:44:48;;;;;;;8.9;6.3;;;;;;;5.14;100;98516.45;;;;
2021/04/12 04:54:45;;;;;;;9.3;5.9;;;;;;;5.28;100;98533.46;;;;
2021/04/12 05:04:44;;;;;;;10.8;8.3;;;;;;;5.4;100;98528.61;;;;
2021/04/12 05:15:17;;;;;;;9.6;7;;;;;;;5.91;100;98532.6;;;;
2021/04/12 05:24:44;;;;;;;18.9;11.3;;;;;;;6.21;100;98539.62;;;;
2021/04/12 05:34:44;;;;;;;18.4;14;;;;;;;6.74;100;98540.45;;;;
2021/04/12 05:44:59;;;;;;;12.7;11;;;;;;;7.48;100;98533.7;;;;
2021/04/12 05:54:35;;;;;;;23.7;10.4;;;;;;;7.81;100;98537.28;;;;
2021/04/12 06:04:33;;;;;;;15.8;10.9;;;;;;;8.35;100;98537.53;;;;
2021/04/12 06:14:48;;;;;;;13.8;10.9;;;;;;;8.98;100;98531.58;;;;
2021/04/12 06:24:40;;;;;;;17.7;15;;;;;;;9.94;100;98540.31;;;;
2021/04/12 06:34:50;;;;;;;13;10.5;;;;;;;10.89;98.14844;98541.77;;;;
2021/04/12 06:45:00;;;;;;;13.8;11.1;;;;;;;11.98;94.10254;98554.3;;;;
2021/04/12 06:55:00;;;;;;;10.1;6;;;;;;;13.05;86.9209;98558.59;;;;
2021/04/12 07:04:30;;;;;;;12.3;7.6;;;;;;;13.87;83.04395;98565.38;;;;
2021/04/12 07:14:41;;;;;;;15.5;12.2;;;;;;;14.08;84.51465;98566.18;;;;
2021/04/12 07:24:47;;;;;;;12.3;8.7;;;;;;;14.18;84.72461;98564.19;;;;
2021/04/12 07:34:19;;;;;;;14.3;10.5;;;;;;;14.37;84.7168;98572.69;;;;
2021/04/12 07:44:18;;;;;;;14.3;11.6;;;;;;;14.71;82.79199;98575.07;;;;
2021/04/12 07:54:17;;;;;;;11.8;7.7;;;;;;;15.06;80.76465;98584.41;;;;
2021/04/12 08:04:16;;;;;;;12.7;9.7;;;;;;;14.87;82.39063;98572.5;;;;
2021/04/12 08:14:16;;;;;;;14.7;9.3;;;;;;;15.07;83.65625;98568.92;;;;
2021/04/12 08:24:15;;;;;;;7.6;6.1;;;;;;;15.61;79.61035;98577.71;;;;
2021/04/12 08:34:14;;;;;;;10.6;6.2;;;;;;;16.21;74.98633;98579.52;;;;
2021/04/12 08:44:14;;;;;;;8.9;5;;;;;;;16.65;72.43848;98577.7;;;;
2021/04/12 08:54:13;;;;;;;5.2;3.3;;;;;;;16.91;67.18066;98574.5;;;;
2021/04/12 09:04:12;;;;;;;7.5;5;;;;;;;17.04;64.69629;98578.75;;;;
2021/04/12 09:14:12;;;;;;;6.7;3.4;;;;;;;16.59;65.43457;98579.1;;;;
2021/04/12 09:24:11;;;;;;;5.1;3.4;;;;;;;16.5;65.5;98581.13;;;;
2021/04/12 09:34:11;;;;;;;9.3;4.1;;;;;;;16.54;67.11328;98579.3;;;;
2021/04/12 09:44:10;;;;;;;7.8;4.8;;;;;;;16.49;68.80371;98585.77;;;;
2021/04/12 09:54:10;;;;;;;9.7;4.1;;;;;;;16.8;69.32129;98582.38;;;;
2021/04/12 10:04:09;;;;;;;7;4.1;;;;;;;17.08;67.59766;98580.41;;;;
2021/04/12 10:14:09;;;;;;;6.8;4.5;;;;;;;17.18;64.83105;98594.66;;;;
2021/04/12 10:24:08;;;;;;;7;4.1;;;;;;;17.01;63.8418;98601.2;;;;
2021/04/12 10:34:08;;;;;;;5.7;2.9;;;;;;;16.96;62.91406;98605;;;;
2021/04/12 10:44:07;;;;;;;7;3.5;;;;;;;16.72;63.43164;98610.56;;;;
2021/04/12 10:54:07;;;;;;;9.3;3.3;;;;;;;16.56;65.17676;98615.14;;;;
2021/04/12 11:04:06;;;;;;;9.3;3.6;;;;;;;16.54;64.65723;98607.31;;;;
2021/04/12 11:14:05;;;;;;;8.6;3.2;;;;;;;16.9;64.03125;98608.33;;;;
2021/04/12 11:24:05;;;;;;;7.3;4;;;;;;;17.19;64.02734;98607.12;;;;
2021/04/12 11:34:05;;;;;;;8;4.8;;;;;;;18.23;63.02539;98610.03;;;;
2021/04/12 11:44:04;;;;;;;8.4;4.3;;;;;;;18.32;59.66895;98615.3;;;;
2021/04/12 11:54:04;;;;;;;7.2;4.1;;;;;;;18.26;61.56445;98611.25;;;;
2021/04/12 12:04:04;;;;;;;7.9;4.3;;;;;;;19.13;61.04883;98616.13;;;;
2021/04/12 12:14:03;;;;;;;8.4;4.2;;;;;;;19.22;59.77832;98608.5;;;;
2021/04/12 12:24:03;;;;;;;8.8;4.2;;;;;;;18.92;59.69238;98620.05;;;;
2021/04/12 12:34:03;;;;;;;7.1;4.3;;;;;;;18.92;59.41504;98609.13;;;;
2021/04/12 12:44:03;;;;;;;8.6;5;;;;;;;18.5;60.8125;98613.73;;;;
2021/04/12 12:54:03;;;;;;;6.3;4.5;;;;;;;18.48;59.15918;98613.28;;;;
2021/04/12 13:04:02;;;;;;;9.8;5.3;;;;;;;18.35;59.68457;98615.38;;;;
2021/04/12 13:14:02;;;;;;;10.2;5.9;;;;;;;18.12;60.45996;98611.73;;;;
2021/04/12 13:24:02;;;;;;;9.8;4.8;;;;;;;18.05;60.77441;98619.75;;;;
2021/04/12 13:34:01;;;;;;;7;3.8;;;;;;;18.97;60.9248;98614.3;;;;
2021/04/12 13:44:01;;;;;;;5.8;2.9;;;;;;;18.56;60.00098;98625.97;;;;
2021/04/12 13:54:01;;;;;;;8.6;4.7;;;;;;;18.22;59.74805;98637.69;;;;
2021/04/12 14:04:01;;;;;;;12.2;5.3;;;;;;;17.75;60.81348;98622.19;;;;
2021/04/12 14:14:00;;;;;;;8.5;4.3;;;;;;;17.86;60.65527;98619.71;;;;
2021/04/12 14:24:00;;;;;;;8.9;4.7;;;;;;;17.96;60.7168;98633.59;;;;
2021/04/12 14:34:00;;;;;;;6.8;4.7;;;;;;;18.37;60.42676;98634.09;;;;
2021/04/12 14:43:59;;;;;;;9.9;5.9;;;;;;;17.91;61.05469;98631.13;;;;
2021/04/12 14:53:59;;;;;;;8.6;4.1;;;;;;;17.68;62.12988;98635.64;;;;
2021/04/12 15:03:59;;;;;;;10.1;5.6;;;;;;;17.45;61.21094;98637.39;;;;
2021/04/12 15:13:58;;;;;;;12.6;7.7;;;;;;;17.74;63.22168;98642.41;;;;
2021/04/12 15:23:58;;;;;;;18;15.3;;;;;;;18.13;63.26367;98653.44;;;;
2021/04/12 15:33:58;;;;;;;17.9;13.1;;;;;;;17.33;65.85352;98659.24;;;;
2021/04/12 15:43:57;;;;;;;18.6;14.2;;;;;;;16.91;67.96094;98673.3;;;;
2021/04/12 15:53:57;;;;;;;16.2;14;;;;;;;16.31;70.69922;98704.17;;;;
2021/04/12 16:03:58;;;;;;;19.8;15;;;;;;;14.94;75.31934;98722.01;;;;
2021/04/12 16:13:55;;;;;;;17;12.4;;;;;;;14.01;79.56152;98735.84;;;;
2021/04/12 16:23:55;;;;;;;16.4;11.9;;;;;;;13.34;82.47852;98760.09;;;;
2021/04/12 16:33:54;;;;;;;24.3;13.6;;;;;;;12.85;85.18359;98775.68;;;;
2021/04/12 16:43:53;;;;;;;21.3;14.9;;;;;;;12.43;86.71777;98779.11;;;;
2021/04/12 16:53:53;;;;;;;18.9;15.1;;;;;;;11.86;89.00781;98791.79;;;;
2021/04/12 17:03:53;;;;;;;16.1;12.4;;;;;;;11.34;91.46973;98820.34;;;;
2021/04/12 17:13:49;;;;;;;18.7;13.5;;;;;;;10.77;93.66504;98838.88;;;;
2021/04/12 17:23:48;;;;;;;19.4;14.8;;;;;;;10.41;94.95703;98846.89;;;;
2021/04/12 17:33:47;;;;;;;16.1;13.3;;;;;;;10;96.56055;98854.11;;;;
2021/04/12 17:43:45;;;;;;;18.8;16.8;;;;;;;9.75;97.75684;98876.11;;;;
2021/04/12 17:53:44;;;;;;;23.8;20.3;;;;;;;9.55;98.50879;98891.47;;;;
2021/04/12 18:03:43;;;;;;;24.2;20.4;;;;;;;9.35;99.33496;98904.43;;;;
2021/04/12 18:13:41;;;;;;;27.6;21.2;;;;;;;9;100;98916.47;;;;
2021/04/12 18:23:40;;;;;;;24.2;20.8;;;;;;;8.75;100;98936.4;;;;
2021/04/12 18:33:38;;;;;;;27;21.8;;;;;;;8.48;100;98944.23;;;;
2021/04/12 18:43:37;;;;;;;33.6;26.8;;;;;;;8.28;100;98957.84;;;;
2021/04/12 18:53:36;;;;;;;30.4;27.2;;;;;;;8.22;100;98967.03;;;;
2021/04/12 19:03:37;;;;;;;37.3;28.6;;;;;;;8.05;100;98976.27;;;;
2021/04/12 19:13:35;;;;;;;38.1;28.9;;;;;;;8.09;100;98996.11;;;;
2021/04/12 19:23:36;;;;;;;38.7;28.6;;;;;;;7.74;100;98996.37;;;;
2021/04/12 19:33:35;;;;;;;46.6;30.3;;;;;;;7.63;100;99015.52;;;;
2021/04/12 19:43:31;;;;;;;41.2;28.7;;;;;;;7.53;100;99016.38;;;;
2021/04/12 19:53:40;;;;;;;29.8;26.7;;;;;;;7.12;100;99018.42;;;;
2021/04/12 20:03:27;;;;;;;33.9;27;;;;;;;7.03;100;99031.61;;;;
2021/04/12 20:13:38;;;;;;;31.4;27.7;;;;;;;6.71;100;99036.5;;;;
2021/04/12 20:23:21;;;;;;;34.2;26;;;;;;;6.69;100;99049.38;;;;
2021/04/12 20:33:19;;;;;;;29.5;25.8;;;;;;;6.55;100;99041.09;;;;
2021/04/12 20:43:17;;;;;;;29.8;24.7;;;;;;;6.35;100;99059.05;;;;
2021/04/12 20:53:15;;;;;;;34.7;28.6;;;;;;;6.01;100;99075.61;;;;
2021/04/12 21:03:13;;;;;;;35.2;27.8;;;;;;;5.91;100;99064.89;;;;
2021/04/12 21:13:12;;;;;;;36.5;29.3;;;;;;;5.83;100;99065.38;;;;
2021/04/12 21:23:10;;;;;;;31.3;28.1;;;;;;;5.76;100;99070.17;;;;
2021/04/12 21:33:08;;;;;;;32.5;25.4;;;;;;;5.76;100;99080.87;;;;
2021/04/12 21:43:06;;;;;;;28.9;24.7;;;;;;;5.55;100;99088.03;;;;
2021/04/12 21:53:04;;;;;;;34;23.3;;;;;;;5.34;100;99102.41;;;;
2021/04/12 22:03:02;;;;;;;30.9;27.5;;;;;;;5.28;100;99105.29;;;;
2021/04/12 22:13:00;;;;;;;35.7;29.7;;;;;;;4.98;100;99116.63;;;;
2021/04/12 22:23:01;;;;;;;33.1;28.9;;;;;;;4.73;100;99135.14;;;;
2021/04/12 22:33:00;;;;;;;30.8;27.4;;;;;;;4.53;100;99139.27;;;;
2021/04/12 22:42:54;;;;;;;31.6;24.9;;;;;;;4.53;100;99146.47;;;;
2021/04/12 22:52:52;;;;;;;27.1;24.3;;;;;;;4.33;100;99156.97;;;;
2021/04/12 23:02:56;;;;;;;26.5;18;;;;;;;4.2;100;99158.16;;;;
2021/04/12 23:12:47;;;;;;;15.5;10.7;;;;;;;4.17;100;99164;;;;
2021/04/12 23:22:45;;;;;;;23.1;14.5;;;;;;;4.1;100;99162.59;;;;
2021/04/12 23:32:43;;;;;;;16.5;14.7;;;;;;;3.97;100;99169.13;;;;
2021/04/12 23:42:41;;;;;;;16.6;13.4;;;;;;;3.89;100;99173.05;;;;
2021/04/12 23:52:42;;;;;;;16.9;14;;;;;;;3.77;100;99163.58;;;;
